sensor_id;sensor_type;location;lat;lon;timestamp;pressure;altitude;pressure_sealevel;temperature;humidity
56038;BME280;41907;47.848;9.000;2024-03-08T00:00:45;95496.22;;;1.42;100.00
56038;BME280;41907;47.848;9.000;2024-03-08T00:03:11;95495.41;;;1.36;100.00
56038;BME280;41907;47.848;9.000;2024-03-08T00:05:36;95492.28;;;1.39;100.00
56038;BME280;41907;47.848;9.000;2024-03-08T00:08:05;95489.09;;;1.32;100.00
56038;BME280;41907;47.848;9.000;2024-03-08T00:10:34;95497.25;;;1.31;100.00
56038;BME280;41907;47.848;9.000;2024-03-08T00:12:59;95496.69;;;1.29;100.00
56038;BME280;41907;47.848;9.000;2024-03-08T00:15:25;95495.13;;;1.33;100.00
56038;BME280;41907;47.848;9.000;2024-03-08T00:17:50;95491.44;;;1.29;100.00
56038;BME280;41907;47.848;9.000;2024-03-08T00:20:16;95503.25;;;1.26;100.00
56038;BME280;41907;47.848;9.000;2024-03-08T00:22:44;95496.38;;;1.20;100.00
56038;BME280;41907;47.848;9.000;2024-03-08T00:25:09;95493.47;;;1.17;100.00
56038;BME280;41907;47.848;9.000;2024-03-08T00:27:36;95486.63;;;1.16;100.00
56038;BME280;41907;47.848;9.000;2024-03-08T00:30:02;95492.94;;;1.15;100.00
56038;BME280;41907;47.848;9.000;2024-03-08T00:32:27;95493.44;;;1.11;100.00
56038;BME280;41907;47.848;9.000;2024-03-08T00:34:53;95491.03;;;1.05;100.00
56038;BME280;41907;47.848;9.000;2024-03-08T00:37:22;95486.56;;;1.05;100.00
56038;BME280;41907;47.848;9.000;2024-03-08T00:39:51;95486.31;;;1.02;100.00
56038;BME280;41907;47.848;9.000;2024-03-08T00:42:17;95479.16;;;0.97;100.00
56038;BME280;41907;47.848;9.000;2024-03-08T00:44:43;95478.13;;;0.98;100.00
56038;BME280;41907;47.848;9.000;2024-03-08T00:47:08;95472.84;;;0.93;100.00
56038;BME280;41907;47.848;9.000;2024-03-08T00:49:34;95475.72;;;0.92;100.00
56038;BME280;41907;47.848;9.000;2024-03-08T00:52:01;95466.50;;;0.84;100.00
56038;BME280;41907;47.848;9.000;2024-03-08T00:54:27;95464.38;;;0.86;100.00
56038;BME280;41907;47.848;9.000;2024-03-08T00:56:52;95459.13;;;0.81;100.00
56038;BME280;41907;47.848;9.000;2024-03-08T00:59:18;95460.94;;;0.81;100.00
56038;BME280;41907;47.848;9.000;2024-03-08T01:01:43;95470.66;;;0.80;100.00
56038;BME280;41907;47.848;9.000;2024-03-08T01:04:09;95463.81;;;0.79;100.00
56038;BME280;41907;47.848;9.000;2024-03-08T01:06:35;95464.31;;;0.76;100.00
56038;BME280;41907;47.848;9.000;2024-03-08T01:09:00;95457.75;;;0.73;100.00
56038;BME280;41907;47.848;9.000;2024-03-08T01:11:26;95463.81;;;0.79;100.00
56038;BME280;41907;47.848;9.000;2024-03-08T01:13:53;95460.63;;;0.72;100.00
56038;BME280;41907;47.848;9.000;2024-03-08T01:16:18;95460.09;;;0.70;100.00
56038;BME280;41907;47.848;9.000;2024-03-08T01:18:45;95448.53;;;0.71;100.00
56038;BME280;41907;47.848;9.000;2024-03-08T01:21:11;95444.59;;;0.68;100.00
56038;BME280;41907;47.848;9.000;2024-03-08T01:23:36;95445.91;;;0.66;100.00
56038;BME280;41907;47.848;9.000;2024-03-08T01:26:02;95439.59;;;0.67;100.00
56038;BME280;41907;47.848;9.000;2024-03-08T01:28:28;95447.97;;;0.64;100.00
56038;BME280;41907;47.848;9.000;2024-03-08T01:30:53;95439.56;;;0.62;100.00
56038;BME280;41907;47.848;9.000;2024-03-08T01:33:25;95441.16;;;0.63;100.00
56038;BME280;41907;47.848;9.000;2024-03-08T01:35:51;95438.22;;;0.59;100.00
56038;BME280;41907;47.848;9.000;2024-03-08T01:38:17;95439.31;;;0.63;100.00
56038;BME280;41907;47.848;9.000;2024-03-08T01:40:43;95438.75;;;0.61;100.00
56038;BME280;41907;47.848;9.000;2024-03-08T01:43:20;95438.75;;;0.61;100.00
56038;BME280;41907;47.848;9.000;2024-03-08T01:45:47;95425.31;;;0.53;100.00
56038;BME280;41907;47.848;9.000;2024-03-08T01:48:13;95425.81;;;0.50;100.00
56038;BME280;41907;47.848;9.000;2024-03-08T01:50:40;95427.41;;;0.51;100.00
56038;BME280;41907;47.848;9.000;2024-03-08T01:53:07;95424.22;;;0.49;100.00
56038;BME280;41907;47.848;9.000;2024-03-08T01:55:36;95418.75;;;0.50;100.00
56038;BME280;41907;47.848;9.000;2024-03-08T01:58:03;95413.22;;;0.47;100.00
56038;BME280;41907;47.848;9.000;2024-03-08T02:00:29;95406.88;;;0.43;100.00
56038;BME280;41907;47.848;9.000;2024-03-08T02:02:56;95405.53;;;0.40;100.00
56038;BME280;41907;47.848;9.000;2024-03-08T02:05:23;95395.28;;;0.33;100.00
56038;BME280;41907;47.848;9.000;2024-03-08T02:07:49;95394.25;;;0.34;100.00
56038;BME280;41907;47.848;9.000;2024-03-08T02:10:14;95391.84;;;0.28;100.00
56038;BME280;41907;47.848;9.000;2024-03-08T02:12:40;95394.00;;;0.36;100.00
56038;BME280;41907;47.848;9.000;2024-03-08T02:15:06;95384.47;;;0.30;100.00
56038;BME280;41907;47.848;9.000;2024-03-08T02:17:32;95385.81;;;0.32;100.00
56038;BME280;41907;47.848;9.000;2024-03-08T02:20:00;95388.19;;;0.34;100.00
56038;BME280;41907;47.848;9.000;2024-03-08T02:22:28;95391.69;;;0.45;100.00
56038;BME280;41907;47.848;9.000;2024-03-08T02:24:54;95387.47;;;0.44;100.00
56038;BME280;41907;47.848;9.000;2024-03-08T02:27:24;95393.66;;;0.64;100.00
56038;BME280;41907;47.848;9.000;2024-03-08T02:29:50;95387.56;;;0.59;100.00
56038;BME280;41907;47.848;9.000;2024-03-08T02:32:20;95386.00;;;0.58;100.00
56038;BME280;41907;47.848;9.000;2024-03-08T02:34:46;95386.56;;;0.65;100.00
56038;BME280;41907;47.848;9.000;2024-03-08T02:37:11;95385.31;;;0.72;100.00
56038;BME280;41907;47.848;9.000;2024-03-08T02:39:36;95385.56;;;0.76;100.00
56038;BME280;41907;47.848;9.000;2024-03-08T02:42:02;95390.06;;;0.81;100.00
56038;BME280;41907;47.848;9.000;2024-03-08T02:44:27;95382.81;;;0.98;100.00
56038;BME280;41907;47.848;9.000;2024-03-08T02:46:52;95382.00;;;0.97;100.00
56038;BME280;41907;47.848;9.000;2024-03-08T02:49:20;95380.44;;;0.96;100.00
56038;BME280;41907;47.848;9.000;2024-03-08T02:51:46;95385.72;;;1.01;100.00
56038;BME280;41907;47.848;9.000;2024-03-08T02:54:11;95383.06;;;0.96;100.00
56038;BME280;41907;47.848;9.000;2024-03-08T02:56:37;95381.75;;;0.94;100.00
56038;BME280;41907;47.848;9.000;2024-03-08T02:59:02;95378.88;;;1.00;100.00
56038;BME280;41907;47.848;9.000;2024-03-08T03:01:28;95376.75;;;0.97;100.00
56038;BME280;41907;47.848;9.000;2024-03-08T03:03:53;95366.31;;;1.02;100.00
56038;BME280;41907;47.848;9.000;2024-03-08T03:06:19;95365.25;;;1.08;100.00
56038;BME280;41907;47.848;9.000;2024-03-08T03:08:46;95360.84;;;1.19;100.00
56038;BME280;41907;47.848;9.000;2024-03-08T03:11:11;95356.09;;;1.16;100.00
56038;BME280;41907;47.848;9.000;2024-03-08T03:13:39;95338.75;;;1.15;100.00
56038;BME280;41907;47.848;9.000;2024-03-08T03:16:04;95340.56;;;1.04;100.00
56038;BME280;41907;47.848;9.000;2024-03-08T03:18:29;95342.44;;;1.14;100.00
56038;BME280;41907;47.848;9.000;2024-03-08T03:20:55;95346.38;;;1.17;100.00
56038;BME280;41907;47.848;9.000;2024-03-08T03:23:21;95345.63;;;1.21;100.00
56038;BME280;41907;47.848;9.000;2024-03-08T03:25:46;95334.06;;;1.32;100.00
56038;BME280;41907;47.848;9.000;2024-03-08T03:28:12;95337.28;;;1.39;100.00
56038;BME280;41907;47.848;9.000;2024-03-08T03:30:42;95330.22;;;1.50;100.00
56038;BME280;41907;47.848;9.000;2024-03-08T03:33:08;95333.84;;;1.44;100.00
56038;BME280;41907;47.848;9.000;2024-03-08T03:35:35;95330.72;;;1.52;100.00
56038;BME280;41907;47.848;9.000;2024-03-08T03:38:01;95336.22;;;1.45;100.00
56038;BME280;41907;47.848;9.000;2024-03-08T03:40:28;95329.09;;;1.36;100.00
56038;BME280;41907;47.848;9.000;2024-03-08T03:42:54;95333.03;;;1.28;100.00
56038;BME280;41907;47.848;9.000;2024-03-08T03:45:19;95327.28;;;1.31;100.00
56038;BME280;41907;47.848;9.000;2024-03-08T03:47:45;95317.00;;;1.30;100.00
56038;BME280;41907;47.848;9.000;2024-03-08T03:50:11;95318.59;;;1.36;100.00
56038;BME280;41907;47.848;9.000;2024-03-08T03:52:36;95316.19;;;1.24;100.00
56038;BME280;41907;47.848;9.000;2024-03-08T03:55:02;95314.91;;;1.22;100.00
56038;BME280;41907;47.848;9.000;2024-03-08T03:57:29;95313.59;;;1.29;100.00
56038;BME280;41907;47.848;9.000;2024-03-08T03:59:55;95313.84;;;1.23;100.00
56038;BME280;41907;47.848;9.000;2024-03-08T04:02:20;95321.72;;;1.23;100.00
56038;BME280;41907;47.848;9.000;2024-03-08T04:04:47;95316.75;;;1.31;100.00
56038;BME280;41907;47.848;9.000;2024-03-08T04:07:12;95318.56;;;1.26;100.00
56038;BME280;41907;47.848;9.000;2024-03-08T04:09:38;95317.53;;;1.22;100.00
56038;BME280;41907;47.848;9.000;2024-03-08T04:12:04;95311.72;;;1.20;100.00
56038;BME280;41907;47.848;9.000;2024-03-08T04:14:29;95301.72;;;1.17;100.00
56038;BME280;41907;47.848;9.000;2024-03-08T04:16:55;95309.63;;;1.11;100.00
56038;BME280;41907;47.848;9.000;2024-03-08T04:19:20;95311.16;;;1.07;100.00
56038;BME280;41907;47.848;9.000;2024-03-08T04:21:45;95313.03;;;1.12;100.00
56038;BME280;41907;47.848;9.000;2024-03-08T04:24:12;95304.88;;;1.03;100.00
56038;BME280;41907;47.848;9.000;2024-03-08T04:26:37;95303.78;;;1.04;100.00
56038;BME280;41907;47.848;9.000;2024-03-08T04:29:03;95297.25;;;1.02;100.00
56038;BME280;41907;47.848;9.000;2024-03-08T04:31:28;95299.09;;;1.11;100.00
56038;BME280;41907;47.848;9.000;2024-03-08T04:33:56;95309.06;;;1.15;100.00
56038;BME280;41907;47.848;9.000;2024-03-08T04:36:21;95303.59;;;1.21;100.00
56038;BME280;41907;47.848;9.000;2024-03-08T04:38:47;95299.38;;;1.20;100.00
56038;BME280;41907;47.848;9.000;2024-03-08T04:41:12;95306.41;;;1.04;100.00
56038;BME280;41907;47.848;9.000;2024-03-08T04:43:38;95285.69;;;1.03;100.00
56038;BME280;41907;47.848;9.000;2024-03-08T04:46:04;95291.22;;;1.11;100.00
56038;BME280;41907;47.848;9.000;2024-03-08T04:48:30;95302.28;;;1.24;100.00
56038;BME280;41907;47.848;9.000;2024-03-08T04:50:56;95294.91;;;1.16;100.00
56038;BME280;41907;47.848;9.000;2024-03-08T04:53:21;95291.50;;;1.25;100.00
56038;BME280;41907;47.848;9.000;2024-03-08T04:55:47;95292.31;;;1.21;100.00
56038;BME280;41907;47.848;9.000;2024-03-08T04:58:12;95294.91;;;1.10;100.00
56038;BME280;41907;47.848;9.000;2024-03-08T05:00:38;95296.19;;;1.08;100.00
56038;BME280;41907;47.848;9.000;2024-03-08T05:03:03;95296.72;;;1.15;100.00
56038;BME280;41907;47.848;9.000;2024-03-08T05:05:30;95292.78;;;1.07;100.00
56038;BME280;41907;47.848;9.000;2024-03-08T05:07:55;95293.84;;;1.11;100.00
56038;BME280;41907;47.848;9.000;2024-03-08T05:10:20;95289.88;;;1.04;100.00
56038;BME280;41907;47.848;9.000;2024-03-08T05:12:46;95288.59;;;1.11;100.00
56038;BME280;41907;47.848;9.000;2024-03-08T05:15:11;95286.75;;;1.17;100.00
56038;BME280;41907;47.848;9.000;2024-03-08T05:17:36;95287.56;;;1.18;100.00
56038;BME280;41907;47.848;9.000;2024-03-08T05:20:02;95285.19;;;1.16;100.00
56038;BME280;41907;47.848;9.000;2024-03-08T05:22:29;95282.00;;;1.04;100.00
56038;BME280;41907;47.848;9.000;2024-03-08T05:24:54;95284.94;;;1.13;100.00
56038;BME280;41907;47.848;9.000;2024-03-08T05:27:19;95284.41;;;1.10;100.00
56038;BME280;41907;47.848;9.000;2024-03-08T05:29:45;95277.81;;;1.03;100.00
56038;BME280;41907;47.848;9.000;2024-03-08T05:32:11;95273.59;;;1.07;100.00
56038;BME280;41907;47.848;9.000;2024-03-08T05:34:37;95276.47;;;1.05;100.00
56038;BME280;41907;47.848;9.000;2024-03-08T05:37:02;95278.59;;;1.08;100.00
56038;BME280;41907;47.848;9.000;2024-03-08T05:39:28;95277.06;;;1.18;100.00
56038;BME280;41907;47.848;9.000;2024-03-08T05:41:54;95279.66;;;1.07;100.00
56038;BME280;41907;47.848;9.000;2024-03-08T05:44:20;95278.09;;;1.11;100.00
56038;BME280;41907;47.848;9.000;2024-03-08T05:46:46;95274.41;;;1.07;100.00
56038;BME280;41907;47.848;9.000;2024-03-08T05:49:11;95275.97;;;1.08;100.00
56038;BME280;41907;47.848;9.000;2024-03-08T05:51:38;95266.50;;;1.02;100.00
56038;BME280;41907;47.848;9.000;2024-03-08T05:54:08;95267.31;;;1.08;100.00
56038;BME280;41907;47.848;9.000;2024-03-08T05:56:38;95274.94;;;1.09;100.00
56038;BME280;41907;47.848;9.000;2024-03-08T05:59:03;95273.09;;;1.10;100.00
56038;BME280;41907;47.848;9.000;2024-03-08T06:01:29;95271.50;;;1.14;100.00
56038;BME280;41907;47.848;9.000;2024-03-08T06:03:56;95272.06;;;1.11;100.00
56038;BME280;41907;47.848;9.000;2024-03-08T06:06:25;95266.53;;;1.18;100.00
56038;BME280;41907;47.848;9.000;2024-03-08T06:08:51;95276.00;;;1.24;100.00
56038;BME280;41907;47.848;9.000;2024-03-08T06:11:18;95275.50;;;1.27;100.00
56038;BME280;41907;47.848;9.000;2024-03-08T06:13:46;95266.84;;;1.31;100.00
56038;BME280;41907;47.848;9.000;2024-03-08T06:16:12;95268.41;;;1.42;100.00
56038;BME280;41907;47.848;9.000;2024-03-08T06:18:37;95267.66;;;1.47;100.00
56038;BME280;41907;47.848;9.000;2024-03-08T06:21:03;95271.59;;;1.49;100.00
56038;BME280;41907;47.848;9.000;2024-03-08T06:23:33;95268.69;;;1.46;100.00
56038;BME280;41907;47.848;9.000;2024-03-08T06:25:58;95268.16;;;1.39;100.00
56038;BME280;41907;47.848;9.000;2024-03-08T06:28:24;95269.47;;;1.36;100.00
56038;BME280;41907;47.848;9.000;2024-03-08T06:30:49;95276.84;;;1.39;100.00
56038;BME280;41907;47.848;9.000;2024-03-08T06:33:17;95278.16;;;1.32;100.00
56038;BME280;41907;47.848;9.000;2024-03-08T06:35:42;95266.56;;;1.23;100.00
56038;BME280;41907;47.848;9.000;2024-03-08T06:38:08;95261.53;;;1.16;100.00
56038;BME280;41907;47.848;9.000;2024-03-08T06:40:33;95265.22;;;1.15;100.00
56038;BME280;41907;47.848;9.000;2024-03-08T06:42:58;95263.66;;;1.24;100.00
56038;BME280;41907;47.848;9.000;2024-03-08T06:45:24;95267.88;;;1.20;100.00
56038;BME280;41907;47.848;9.000;2024-03-08T06:47:50;95269.19;;;1.28;100.00
56038;BME280;41907;47.848;9.000;2024-03-08T06:50:16;95269.97;;;1.18;100.00
56038;BME280;41907;47.848;9.000;2024-03-08T06:52:41;95264.44;;;1.20;100.00
56038;BME280;41907;47.848;9.000;2024-03-08T06:55:13;95266.56;;;1.23;100.00
56038;BME280;41907;47.848;9.000;2024-03-08T06:57:41;95262.63;;;1.20;100.00
56038;BME280;41907;47.848;9.000;2024-03-08T07:00:10;95261.81;;;1.25;100.00
56038;BME280;41907;47.848;9.000;2024-03-08T07:02:44;95266.03;;;1.21;100.00
56038;BME280;41907;47.848;9.000;2024-03-08T07:05:11;95262.34;;;1.17;100.00
56038;BME280;41907;47.848;9.000;2024-03-08T07:07:36;95263.94;;;1.23;100.00
56038;BME280;41907;47.848;9.000;2024-03-08T07:10:02;95266.53;;;1.18;100.00
56038;BME280;41907;47.848;9.000;2024-03-08T07:12:28;95265.78;;;1.22;100.00
56038;BME280;41907;47.848;9.000;2024-03-08T07:14:53;95263.63;;;1.14;100.00
56038;BME280;41907;47.848;9.000;2024-03-08T07:17:20;95260.50;;;1.17;100.00
56038;BME280;41907;47.848;9.000;2024-03-08T07:19:45;95262.63;;;1.20;100.00
56038;BME280;41907;47.848;9.000;2024-03-08T07:22:10;95263.69;;;1.34;100.00
56038;BME280;41907;47.848;9.000;2024-03-08T07:24:36;95250.28;;;1.36;100.00
56038;BME280;41907;47.848;9.000;2024-03-08T07:27:17;95269.47;;;1.46;100.00
56038;BME280;41907;47.848;9.000;2024-03-08T07:29:43;95263.69;;;1.39;100.00
56038;BME280;41907;47.848;9.000;2024-03-08T07:32:08;95261.88;;;1.40;100.00
56038;BME280;41907;47.848;9.000;2024-03-08T07:34:50;95267.34;;;1.33;100.00
56038;BME280;41907;47.848;9.000;2024-03-08T07:37:17;95266.88;;;1.57;100.00
56038;BME280;41907;47.848;9.000;2024-03-08T07:39:42;95263.19;;;1.68;100.00
56038;BME280;41907;47.848;9.000;2024-03-08T07:42:08;95259.78;;;1.77;100.00
56038;BME280;41907;47.848;9.000;2024-03-08T07:44:35;95259.53;;;1.69;100.00
56038;BME280;41907;47.848;9.000;2024-03-08T07:47:00;95249.50;;;1.71;100.00
56038;BME280;41907;47.848;9.000;2024-03-08T07:49:25;95252.69;;;1.58;100.00
56038;BME280;41907;47.848;9.000;2024-03-08T07:51:51;95253.19;;;1.55;100.00
56038;BME280;41907;47.848;9.000;2024-03-08T07:54:17;95242.94;;;1.63;100.00
56038;BME280;41907;47.848;9.000;2024-03-08T07:56:42;95244.00;;;1.62;100.00
56038;BME280;41907;47.848;9.000;2024-03-08T07:59:07;95250.03;;;1.63;100.00
56038;BME280;41907;47.848;9.000;2024-03-08T08:01:33;95235.59;;;1.65;100.00
56038;BME280;41907;47.848;9.000;2024-03-08T08:03:59;95241.63;;;1.61;100.00
56038;BME280;41907;47.848;9.000;2024-03-08T08:06:26;95241.09;;;1.64;100.00
56038;BME280;41907;47.848;9.000;2024-03-08T08:08:52;95241.63;;;1.76;100.00
56038;BME280;41907;47.848;9.000;2024-03-08T08:11:17;95242.44;;;1.76;100.00
56038;BME280;41907;47.848;9.000;2024-03-08T08:13:43;95236.38;;;1.76;100.00
56038;BME280;41907;47.848;9.000;2024-03-08T08:16:09;95239.53;;;1.73;100.00
56038;BME280;41907;47.848;9.000;2024-03-08T08:18:35;95241.63;;;1.76;100.00
56038;BME280;41907;47.848;9.000;2024-03-08T08:21:04;95238.22;;;1.75;100.00
56038;BME280;41907;47.848;9.000;2024-03-08T08:23:32;95229.28;;;1.76;100.00
56038;BME280;41907;47.848;9.000;2024-03-08T08:25:58;95236.63;;;1.84;100.00
56038;BME280;41907;47.848;9.000;2024-03-08T08:28:24;95239.78;;;1.86;100.00
56038;BME280;41907;47.848;9.000;2024-03-08T08:30:49;95226.63;;;1.81;100.00
56038;BME280;41907;47.848;9.000;2024-03-08T08:33:15;95234.78;;;1.90;100.00
56038;BME280;41907;47.848;9.000;2024-03-08T08:35:40;95236.09;;;1.98;100.00
56038;BME280;41907;47.848;9.000;2024-03-08T08:38:06;95229.78;;;1.94;100.00
56038;BME280;41907;47.848;9.000;2024-03-08T08:40:33;95242.94;;;1.94;100.00
56038;BME280;41907;47.848;9.000;2024-03-08T08:42:58;95236.63;;;1.95;100.00
56038;BME280;41907;47.848;9.000;2024-03-08T08:45:25;95242.44;;;1.86;100.00
56038;BME280;41907;47.848;9.000;2024-03-08T08:47:51;95241.38;;;1.98;100.00
56038;BME280;41907;47.848;9.000;2024-03-08T08:50:17;95244.22;;;2.11;100.00
56038;BME280;41907;47.848;9.000;2024-03-08T08:52:48;95230.28;;;2.11;100.00
56038;BME280;41907;47.848;9.000;2024-03-08T08:55:14;95223.69;;;2.18;100.00
56038;BME280;41907;47.848;9.000;2024-03-08T08:57:43;95226.28;;;2.29;100.00
56038;BME280;41907;47.848;9.000;2024-03-08T09:00:09;95222.31;;;2.36;100.00
56038;BME280;41907;47.848;9.000;2024-03-08T09:02:40;95221.28;;;2.42;100.00
56038;BME280;41907;47.848;9.000;2024-03-08T09:05:06;95222.84;;;2.43;100.00
56038;BME280;41907;47.848;9.000;2024-03-08T09:07:33;95224.44;;;2.39;100.00
56038;BME280;41907;47.848;9.000;2024-03-08T09:09:59;95210.16;;;2.55;100.00
56038;BME280;41907;47.848;9.000;2024-03-08T09:12:24;95209.34;;;2.55;100.00
56038;BME280;41907;47.848;9.000;2024-03-08T09:14:50;95211.16;;;2.65;100.00
56038;BME280;41907;47.848;9.000;2024-03-08T09:17:15;95202.72;;;2.73;100.00
56038;BME280;41907;47.848;9.000;2024-03-08T09:19:45;95198.69;;;2.85;100.00
56038;BME280;41907;47.848;9.000;2024-03-08T09:22:10;95191.25;;;2.97;100.00
56038;BME280;41907;47.848;9.000;2024-03-08T09:24:36;95181.97;;;3.10;100.00
56038;BME280;41907;47.848;9.000;2024-03-08T09:27:01;95187.19;;;3.15;100.00
56038;BME280;41907;47.848;9.000;2024-03-08T09:29:26;95188.25;;;3.19;100.00
56038;BME280;41907;47.848;9.000;2024-03-08T09:31:52;95180.56;;;3.23;100.00
56038;BME280;41907;47.848;9.000;2024-03-08T09:34:17;95181.25;;;3.39;100.00
56038;BME280;41907;47.848;9.000;2024-03-08T09:36:44;95178.19;;;3.21;100.00
56038;BME280;41907;47.848;9.000;2024-03-08T09:39:09;95192.28;;;3.41;100.00
56038;BME280;41907;47.848;9.000;2024-03-08T09:41:34;95188.84;;;3.40;100.00
56038;BME280;41907;47.848;9.000;2024-03-08T09:44:00;95196.44;;;3.13;100.00
56038;BME280;41907;47.848;9.000;2024-03-08T09:46:26;95191.69;;;3.15;100.00
56038;BME280;41907;47.848;9.000;2024-03-08T09:48:54;95193.84;;;3.47;100.00
56038;BME280;41907;47.848;9.000;2024-03-08T09:51:28;95185.72;;;3.38;100.00
56038;BME280;41907;47.848;9.000;2024-03-08T09:53:54;95181.75;;;3.41;100.00
56038;BME280;41907;47.848;9.000;2024-03-08T09:56:21;95170.59;;;3.15;100.00
56038;BME280;41907;47.848;9.000;2024-03-08T09:58:48;95167.44;;;3.13;100.00
56038;BME280;41907;47.848;9.000;2024-03-08T10:01:33;95169.53;;;3.21;100.00
56038;BME280;41907;47.848;9.000;2024-03-08T10:03:58;95168.34;;;2.93;100.00
56038;BME280;41907;47.848;9.000;2024-03-08T10:06:23;95165.47;;;2.94;100.00
56038;BME280;41907;47.848;9.000;2024-03-08T10:08:49;95165.44;;;2.99;100.00
56038;BME280;41907;47.848;9.000;2024-03-08T10:11:17;95160.25;;;2.84;100.00
56038;BME280;41907;47.848;9.000;2024-03-08T10:13:44;95156.03;;;2.88;100.00
56038;BME280;41907;47.848;9.000;2024-03-08T10:16:11;95157.28;;;2.96;100.00
56038;BME280;41907;47.848;9.000;2024-03-08T10:18:37;95158.97;;;3.21;100.00
56038;BME280;41907;47.848;9.000;2024-03-08T10:21:07;95153.13;;;3.29;100.00
56038;BME280;41907;47.848;9.000;2024-03-08T10:23:35;95155.09;;;3.42;100.00
56038;BME280;41907;47.848;9.000;2024-03-08T10:26:17;95154.28;;;3.47;100.00
56038;BME280;41907;47.848;9.000;2024-03-08T10:28:46;95154.44;;;3.60;100.00
56038;BME280;41907;47.848;9.000;2024-03-08T10:31:13;95158.44;;;3.58;100.00
56038;BME280;41907;47.848;9.000;2024-03-08T10:33:40;95158.13;;;3.59;100.00
56038;BME280;41907;47.848;9.000;2024-03-08T10:36:07;95147.47;;;3.74;100.00
56038;BME280;41907;47.848;9.000;2024-03-08T10:38:36;95150.81;;;3.51;100.00
56038;BME280;41907;47.848;9.000;2024-03-08T10:41:03;95152.03;;;3.64;100.00
56038;BME280;41907;47.848;9.000;2024-03-08T10:43:33;95142.22;;;3.69;100.00
56038;BME280;41907;47.848;9.000;2024-03-08T10:48:55;95134.28;;;3.41;100.00
56038;BME280;41907;47.848;9.000;2024-03-08T10:51:24;95131.16;;;3.39;100.00
56038;BME280;41907;47.848;9.000;2024-03-08T10:53:52;95141.03;;;3.57;100.00
56038;BME280;41907;47.848;9.000;2024-03-08T10:56:17;95130.69;;;3.60;100.00
56038;BME280;41907;47.848;9.000;2024-03-08T10:58:43;95128.75;;;3.71;100.00
56038;BME280;41907;47.848;9.000;2024-03-08T11:01:09;95123.94;;;3.78;100.00
56038;BME280;41907;47.848;9.000;2024-03-08T11:03:47;95131.84;;;3.78;100.00
56038;BME280;41907;47.848;9.000;2024-03-08T11:08:48;95122.50;;;3.91;100.00
56038;BME280;41907;47.848;9.000;2024-03-08T11:11:26;95129.28;;;3.97;100.00
56038;BME280;41907;47.848;9.000;2024-03-08T11:13:59;95127.84;;;3.86;100.00
56038;BME280;41907;47.848;9.000;2024-03-08T11:19:05;95128.84;;;3.61;100.00
56038;BME280;41907;47.848;9.000;2024-03-08T11:21:32;95113.03;;;3.61;100.00
56038;BME280;41907;47.848;9.000;2024-03-08T11:24:12;95113.00;;;3.66;100.00
56038;BME280;41907;47.848;9.000;2024-03-08T11:26:39;95120.66;;;3.62;100.00
56038;BME280;41907;47.848;9.000;2024-03-08T11:32:11;95098.41;;;3.73;100.00
56038;BME280;41907;47.848;9.000;2024-03-08T11:34:40;95092.00;;;3.80;100.00
56038;BME280;41907;47.848;9.000;2024-03-08T11:37:18;95091.75;;;4.05;100.00
56038;BME280;41907;47.848;9.000;2024-03-08T11:39:47;95082.47;;;4.07;100.00
56038;BME280;41907;47.848;9.000;2024-03-08T11:42:19;95086.81;;;4.41;100.00
56038;BME280;41907;47.848;9.000;2024-03-08T11:44:45;95090.56;;;4.35;100.00
56038;BME280;41907;47.848;9.000;2024-03-08T11:47:11;95091.59;;;4.39;100.00
56038;BME280;41907;47.848;9.000;2024-03-08T11:49:38;95091.03;;;4.61;100.00
56038;BME280;41907;47.848;9.000;2024-03-08T11:52:04;95088.25;;;4.52;100.00
56038;BME280;41907;47.848;9.000;2024-03-08T11:54:29;95079.84;;;4.26;100.00
56038;BME280;41907;47.848;9.000;2024-03-08T11:56:56;95074.78;;;4.11;100.00
56038;BME280;41907;47.848;9.000;2024-03-08T11:59:27;95079.34;;;4.05;100.00
56038;BME280;41907;47.848;9.000;2024-03-08T12:02:11;95069.31;;;4.26;100.00
56038;BME280;41907;47.848;9.000;2024-03-08T12:04:36;95066.78;;;4.59;100.00
56038;BME280;41907;47.848;9.000;2024-03-08T12:07:02;95061.06;;;4.52;100.00
56038;BME280;41907;47.848;9.000;2024-03-08T12:09:34;95051.44;;;4.61;100.00
56038;BME280;41907;47.848;9.000;2024-03-08T12:12:01;95055.97;;;4.55;100.00
56038;BME280;41907;47.848;9.000;2024-03-08T12:14:28;95054.78;;;4.47;100.00
56038;BME280;41907;47.848;9.000;2024-03-08T12:16:53;95054.25;;;4.64;100.00
56038;BME280;41907;47.848;9.000;2024-03-08T12:19:19;95061.53;;;4.35;100.00
56038;BME280;41907;47.848;9.000;2024-03-08T12:21:45;95052.47;;;4.22;100.00
56038;BME280;41907;47.848;9.000;2024-03-08T12:24:16;95043.50;;;4.23;100.00
56038;BME280;41907;47.848;9.000;2024-03-08T12:26:45;95049.91;;;4.36;100.00
56038;BME280;41907;47.848;9.000;2024-03-08T12:31:51;95045.78;;;4.48;100.00
56038;BME280;41907;47.848;9.000;2024-03-08T12:34:17;95032.72;;;4.38;100.00
56038;BME280;41907;47.848;9.000;2024-03-08T12:36:50;95033.88;;;4.51;100.00
56038;BME280;41907;47.848;9.000;2024-03-08T12:39:18;95039.28;;;4.41;100.00
56038;BME280;41907;47.848;9.000;2024-03-08T12:41:56;95038.69;;;4.63;100.00
56038;BME280;41907;47.848;9.000;2024-03-08T12:44:24;95035.13;;;4.72;100.00
56038;BME280;41907;47.848;9.000;2024-03-08T12:46:51;95029.78;;;4.77;100.00
56038;BME280;41907;47.848;9.000;2024-03-08T12:49:16;95029.69;;;4.82;100.00
56038;BME280;41907;47.848;9.000;2024-03-08T12:51:48;95034.75;;;4.98;100.00
56038;BME280;41907;47.848;9.000;2024-03-08T12:54:13;95030.84;;;5.28;100.00
56038;BME280;41907;47.848;9.000;2024-03-08T12:56:39;95030.81;;;4.95;100.00
56038;BME280;41907;47.848;9.000;2024-03-08T12:59:05;95011.88;;;5.07;100.00
56038;BME280;41907;47.848;9.000;2024-03-08T13:01:33;95019.13;;;5.15;100.00
56038;BME280;41907;47.848;9.000;2024-03-08T13:03:59;95009.00;;;4.90;100.00
56038;BME280;41907;47.848;9.000;2024-03-08T13:06:26;95007.31;;;4.94;100.00
56038;BME280;41907;47.848;9.000;2024-03-08T13:08:54;95009.28;;;4.88;100.00
56038;BME280;41907;47.848;9.000;2024-03-08T13:11:20;95004.78;;;4.89;100.00